THY126 LTFM-UUWW
Flight info
| Callsign | THY126 |
|---|---|
| Flight time | 3h 7m |
| Altitude | 40000 |
| Route | IBLAX4D IBLAX P727 BGS L622 GONGO DCT KOMAN DCT KARIL DCT KENIN/N0465F390 DCT ETUBO DCT OFEDE DCT LIZUP DCT LAFAT/K0863F390 N858 RAMBE N168 LIVDA N609 KOVOD T52 BILRU BILRU3A |
| Aircraft | A333/H-SDE3GHIJ2J3J5M1RVWXY/LB2D1 |
Departure
| Time | 2026-05-05 23:41 |
|---|---|
| Airport | İstanbul Airport (LTFM) |
Arrival
| Time | 2026-05-06 02:49 |
|---|---|
| Airport | Vnukovo International Airport (UUWW) |
| Time | Latitude | Longitude | Altitude | Speed | Heading |
|---|---|---|---|---|---|
| 2026-05-05 22:55 | 41.26801 | 28.74122 | 338 ft | 0 kts | 91° |
| 2026-05-05 23:31 | 41.26801 | 28.74121 | 338 ft | 1 kts | 91° |
| 2026-05-05 23:31 | 41.26802 | 28.74089 | 336 ft | 4 kts | 91° |
| 2026-05-05 23:31 | 41.26803 | 28.74056 | 334 ft | 4 kts | 90° |
| 2026-05-05 23:31 | 41.26798 | 28.74027 | 332 ft | 4 kts | 36° |
| 2026-05-05 23:32 | 41.26775 | 28.74019 | 332 ft | 4 kts | 357° |
| 2026-05-05 23:32 | 41.26761 | 28.74020 | 332 ft | 1 kts | 359° |
| 2026-05-05 23:32 | 41.26760 | 28.74020 | 332 ft | 0 kts | 359° |
| 2026-05-05 23:33 | 41.26779 | 28.74019 | 332 ft | 5 kts | 359° |
| 2026-05-05 23:33 | 41.26842 | 28.74017 | 337 ft | 13 kts | 359° |
| 2026-05-05 23:34 | 41.26941 | 28.74006 | 332 ft | 9 kts | 336° |
| 2026-05-05 23:34 | 41.26961 | 28.73954 | 334 ft | 9 kts | 283° |
| 2026-05-05 23:34 | 41.26963 | 28.73840 | 338 ft | 14 kts | 270° |
| 2026-05-05 23:34 | 41.26960 | 28.73707 | 338 ft | 15 kts | 269° |
| 2026-05-05 23:35 | 41.26959 | 28.73559 | 334 ft | 17 kts | 269° |
| 2026-05-05 23:35 | 41.26957 | 28.73403 | 333 ft | 17 kts | 269° |
| 2026-05-05 23:35 | 41.26937 | 28.73252 | 332 ft | 16 kts | 225° |
| 2026-05-05 23:35 | 41.26841 | 28.73224 | 336 ft | 14 kts | 179° |
| 2026-05-05 23:36 | 41.26742 | 28.73225 | 336 ft | 15 kts | 179° |
| 2026-05-05 23:36 | 41.26639 | 28.73226 | 332 ft | 15 kts | 179° |
| 2026-05-05 23:36 | 41.26532 | 28.73230 | 333 ft | 15 kts | 178° |
| 2026-05-05 23:36 | 41.26426 | 28.73225 | 334 ft | 13 kts | 199° |
| 2026-05-05 23:37 | 41.26388 | 28.73157 | 335 ft | 10 kts | 236° |
| 2026-05-05 23:37 | 41.26326 | 28.73120 | 336 ft | 10 kts | 182° |
| 2026-05-05 23:37 | 41.26250 | 28.73113 | 333 ft | 13 kts | 201° |
| 2026-05-05 23:37 | 41.26221 | 28.73061 | 333 ft | 10 kts | 250° |
| 2026-05-05 23:38 | 41.26216 | 28.72990 | 335 ft | 0 kts | 268° |
| 2026-05-05 23:38 | 41.26216 | 28.72982 | 338 ft | 1 kts | 268° |
| 2026-05-05 23:38 | 41.26216 | 28.72981 | 338 ft | 0 kts | 268° |
| 2026-05-05 23:38 | 41.26216 | 28.72980 | 338 ft | 1 kts | 268° |
| 2026-05-05 23:39 | 41.26215 | 28.72939 | 336 ft | 8 kts | 269° |
| 2026-05-05 23:39 | 41.26215 | 28.72832 | 334 ft | 13 kts | 278° |
| 2026-05-05 23:39 | 41.26278 | 28.72773 | 333 ft | 12 kts | 358° |
| 2026-05-05 23:39 | 41.26290 | 28.72772 | 333 ft | 0 kts | 358° |
| 2026-05-05 23:40 | 41.26336 | 28.72772 | 334 ft | 31 kts | 359° |
| 2026-05-05 23:40 | 41.26823 | 28.72764 | 333 ft | 107 kts | 359° |
| 2026-05-05 23:40 | 41.27793 | 28.72736 | 361 ft | 169 kts | 0° |
| 2026-05-05 23:41 | 41.29059 | 28.72692 | 900 ft | 187 kts | 354° |
| 2026-05-05 23:41 | 41.30363 | 28.72645 | 1888 ft | 195 kts | 358° |
| 2026-05-05 23:41 | 41.31797 | 28.72620 | 2248 ft | 216 kts | 359° |
| 2026-05-05 23:41 | 41.33363 | 28.72603 | 2534 ft | 235 kts | 360° |
| 2026-05-05 23:42 | 41.35037 | 28.72571 | 3176 ft | 233 kts | 356° |
| 2026-05-05 23:42 | 41.36516 | 28.72519 | 4747 ft | 201 kts | 357° |
| 2026-05-05 23:42 | 41.37904 | 28.72391 | 5561 ft | 205 kts | 352° |
| 2026-05-05 23:42 | 41.39350 | 28.71823 | 5933 ft | 229 kts | 339° |
| 2026-05-05 23:43 | 41.40851 | 28.70913 | 6485 ft | 243 kts | 336° |
| 2026-05-05 23:43 | 41.42390 | 28.69914 | 7228 ft | 248 kts | 336° |
| 2026-05-05 23:43 | 41.43955 | 28.68896 | 8044 ft | 252 kts | 336° |
| 2026-05-05 23:43 | 41.45546 | 28.67867 | 8894 ft | 256 kts | 336° |
| 2026-05-05 23:44 | 41.47169 | 28.66822 | 9670 ft | 262 kts | 336° |
| 2026-05-05 23:44 | 41.48830 | 28.65756 | 10342 ft | 271 kts | 336° |
| 2026-05-05 23:44 | 41.50591 | 28.64630 | 10659 ft | 291 kts | 336° |
| 2026-05-05 23:44 | 41.52480 | 28.63421 | 10958 ft | 311 kts | 336° |
| 2026-05-05 23:45 | 41.54492 | 28.62132 | 11236 ft | 329 kts | 336° |
| 2026-05-05 23:45 | 41.56580 | 28.60716 | 11619 ft | 344 kts | 331° |
| 2026-05-05 23:45 | 41.58488 | 28.58731 | 12214 ft | 353 kts | 319° |
| 2026-05-05 23:45 | 41.60205 | 28.56343 | 12849 ft | 359 kts | 315° |
| 2026-05-05 23:46 | 41.61892 | 28.53857 | 13467 ft | 364 kts | 315° |
| 2026-05-05 23:46 | 41.63598 | 28.51331 | 14080 ft | 368 kts | 315° |
| 2026-05-05 23:46 | 41.65327 | 28.48784 | 14635 ft | 371 kts | 315° |
| 2026-05-05 23:46 | 41.67233 | 28.46456 | 15191 ft | 372 kts | 326° |
| 2026-05-05 23:47 | 41.69487 | 28.44749 | 15762 ft | 374 kts | 336° |
| 2026-05-05 23:47 | 41.71882 | 28.43358 | 16326 ft | 377 kts | 338° |
| 2026-05-05 23:47 | 41.74319 | 28.42009 | 16868 ft | 381 kts | 338° |
| 2026-05-05 23:47 | 41.76779 | 28.40649 | 17424 ft | 384 kts | 338° |
| 2026-05-05 23:48 | 41.79254 | 28.39273 | 17999 ft | 387 kts | 338° |
| 2026-05-05 23:48 | 41.81746 | 28.37881 | 18499 ft | 390 kts | 338° |
| 2026-05-05 23:48 | 41.84265 | 28.36471 | 18948 ft | 394 kts | 338° |
| 2026-05-05 23:48 | 41.86805 | 28.35045 | 19403 ft | 397 kts | 338° |
| 2026-05-05 23:49 | 41.89365 | 28.33606 | 19851 ft | 400 kts | 338° |
| 2026-05-05 23:49 | 41.91941 | 28.32157 | 20280 ft | 403 kts | 338° |
| 2026-05-05 23:49 | 41.94530 | 28.30658 | 20750 ft | 407 kts | 335° |
| 2026-05-05 23:49 | 41.97002 | 28.28768 | 21127 ft | 412 kts | 325° |
| 2026-05-05 23:50 | 41.99192 | 28.26273 | 21570 ft | 415 kts | 314° |
| 2026-05-05 23:50 | 42.01054 | 28.23281 | 21995 ft | 419 kts | 308° |
| 2026-05-05 23:50 | 42.02769 | 28.20101 | 22416 ft | 422 kts | 305° |
| 2026-05-05 23:50 | 42.04419 | 28.16815 | 22841 ft | 425 kts | 304° |
| 2026-05-05 23:51 | 42.06045 | 28.13485 | 23249 ft | 428 kts | 304° |
| 2026-05-05 23:51 | 42.07659 | 28.10167 | 23648 ft | 430 kts | 304° |
| 2026-05-05 23:51 | 42.09312 | 28.06793 | 23990 ft | 433 kts | 304° |
| 2026-05-05 23:51 | 42.10984 | 28.03412 | 24328 ft | 435 kts | 304° |
| 2026-05-05 23:52 | 42.12670 | 28.00024 | 24705 ft | 436 kts | 304° |
| 2026-05-05 23:52 | 42.14371 | 27.96624 | 25051 ft | 438 kts | 304° |
| 2026-05-05 23:52 | 42.16080 | 27.93212 | 25382 ft | 441 kts | 304° |
| 2026-05-05 23:52 | 42.17800 | 27.89777 | 25717 ft | 443 kts | 304° |
| 2026-05-05 23:53 | 42.19530 | 27.86334 | 26048 ft | 445 kts | 306° |
| 2026-05-05 23:53 | 42.21458 | 27.83060 | 26356 ft | 446 kts | 313° |
| 2026-05-05 23:53 | 42.23699 | 27.80154 | 26679 ft | 448 kts | 321° |
| 2026-05-05 23:53 | 42.26248 | 27.77724 | 27042 ft | 448 kts | 328° |
| 2026-05-05 23:54 | 42.28921 | 27.75570 | 27416 ft | 449 kts | 330° |
| 2026-05-05 23:54 | 42.31660 | 27.73507 | 27637 ft | 453 kts | 331° |
| 2026-05-05 23:54 | 42.34447 | 27.71483 | 27919 ft | 456 kts | 332° |
| 2026-05-05 23:54 | 42.37256 | 27.69466 | 28209 ft | 458 kts | 332° |
| 2026-05-05 23:55 | 42.40073 | 27.67440 | 28491 ft | 460 kts | 332° |
| 2026-05-05 23:55 | 42.42901 | 27.65394 | 28767 ft | 462 kts | 331° |
| 2026-05-05 23:55 | 42.45743 | 27.63323 | 29041 ft | 465 kts | 331° |
| 2026-05-05 23:55 | 42.48589 | 27.61238 | 29422 ft | 464 kts | 332° |
| 2026-05-05 23:56 | 42.51419 | 27.59157 | 29792 ft | 464 kts | 331° |
| 2026-05-05 23:56 | 42.54266 | 27.57057 | 29883 ft | 470 kts | 331° |
| 2026-05-05 23:56 | 42.57145 | 27.54916 | 30086 ft | 473 kts | 329° |
| 2026-05-05 23:56 | 42.59903 | 27.52494 | 30459 ft | 471 kts | 325° |
| 2026-05-05 23:57 | 42.62585 | 27.49966 | 30843 ft | 468 kts | 324° |
| 2026-05-05 23:57 | 42.65236 | 27.47406 | 31245 ft | 466 kts | 324° |
| 2026-05-05 23:57 | 42.67860 | 27.44836 | 31601 ft | 464 kts | 324° |
| 2026-05-05 23:57 | 42.70453 | 27.42277 | 32252 ft | 455 kts | 324° |
| 2026-05-05 23:58 | 42.72995 | 27.39762 | 32790 ft | 450 kts | 324° |
| 2026-05-05 23:58 | 42.75526 | 27.37257 | 33091 ft | 450 kts | 324° |
| 2026-05-05 23:58 | 42.78061 | 27.34749 | 33364 ft | 451 kts | 324° |
| 2026-05-05 23:58 | 42.80612 | 27.32226 | 33448 ft | 455 kts | 324° |
| 2026-05-05 23:59 | 42.83182 | 27.29684 | 33665 ft | 456 kts | 324° |
| 2026-05-05 23:59 | 42.85744 | 27.27150 | 34008 ft | 455 kts | 324° |
| 2026-05-05 23:59 | 42.88301 | 27.24618 | 34332 ft | 452 kts | 324° |
| 2026-05-05 23:59 | 42.90824 | 27.22117 | 34799 ft | 446 kts | 324° |
| 2026-05-06 00:00 | 42.93333 | 27.19627 | 35055 ft | 446 kts | 324° |
| 2026-05-06 00:00 | 42.95844 | 27.17133 | 35225 ft | 447 kts | 324° |
| 2026-05-06 00:00 | 42.98355 | 27.14637 | 35418 ft | 448 kts | 324° |
| 2026-05-06 00:00 | 43.00873 | 27.12131 | 35622 ft | 448 kts | 324° |
| 2026-05-06 00:01 | 43.03393 | 27.09620 | 35822 ft | 448 kts | 324° |
| 2026-05-06 00:01 | 43.05912 | 27.07107 | 35981 ft | 450 kts | 324° |
| 2026-05-06 00:01 | 43.08445 | 27.04578 | 36150 ft | 450 kts | 324° |
| 2026-05-06 00:01 | 43.10987 | 27.02098 | 36406 ft | 449 kts | 326° |
| 2026-05-06 00:02 | 43.13568 | 26.99699 | 36609 ft | 448 kts | 326° |
| 2026-05-06 00:02 | 43.16172 | 26.97341 | 36784 ft | 449 kts | 327° |
| 2026-05-06 00:02 | 43.18788 | 26.94996 | 36968 ft | 449 kts | 327° |
| 2026-05-06 00:02 | 43.21404 | 26.92651 | 37138 ft | 449 kts | 327° |
| 2026-05-06 00:03 | 43.24017 | 26.90297 | 37320 ft | 450 kts | 327° |
| 2026-05-06 00:03 | 43.26626 | 26.87936 | 37470 ft | 450 kts | 326° |
| 2026-05-06 00:03 | 43.29237 | 26.85563 | 37684 ft | 449 kts | 326° |
| 2026-05-06 00:03 | 43.31837 | 26.83192 | 37896 ft | 449 kts | 326° |
| 2026-05-06 00:04 | 43.34440 | 26.80814 | 38038 ft | 450 kts | 326° |
| 2026-05-06 00:04 | 43.37048 | 26.78428 | 38197 ft | 450 kts | 326° |
| 2026-05-06 00:04 | 43.39651 | 26.76044 | 38384 ft | 450 kts | 326° |
| 2026-05-06 00:04 | 43.42258 | 26.73654 | 38545 ft | 450 kts | 326° |
| 2026-05-06 00:05 | 43.47435 | 26.68901 | 38828 ft | 451 kts | 326° |
| 2026-05-06 00:05 | 43.50039 | 26.66506 | 38951 ft | 450 kts | 326° |
| 2026-05-06 00:05 | 43.52641 | 26.64112 | 39110 ft | 449 kts | 326° |
| 2026-05-06 00:06 | 43.55238 | 26.61720 | 39231 ft | 449 kts | 326° |
| 2026-05-06 00:06 | 43.57833 | 26.59326 | 39348 ft | 449 kts | 326° |
| 2026-05-06 00:06 | 43.60431 | 26.56927 | 39465 ft | 450 kts | 326° |
| 2026-05-06 00:07 | 43.65629 | 26.52121 | 39683 ft | 450 kts | 326° |
| 2026-05-06 00:07 | 43.68229 | 26.49712 | 39794 ft | 450 kts | 326° |
| 2026-05-06 00:07 | 43.70828 | 26.47303 | 39893 ft | 450 kts | 326° |
| 2026-05-06 00:07 | 43.73426 | 26.44892 | 40007 ft | 450 kts | 326° |
| 2026-05-06 00:08 | 43.76029 | 26.42473 | 40022 ft | 451 kts | 326° |
| 2026-05-06 00:08 | 43.81228 | 26.37634 | 40021 ft | 450 kts | 326° |
| 2026-05-06 00:09 | 43.86428 | 26.32784 | 40021 ft | 451 kts | 326° |
| 2026-05-06 00:09 | 43.91638 | 26.27914 | 40020 ft | 452 kts | 326° |
| 2026-05-06 00:10 | 43.96845 | 26.23037 | 40007 ft | 452 kts | 326° |
| 2026-05-06 00:10 | 44.02073 | 26.18199 | 40013 ft | 452 kts | 326° |
| 2026-05-06 00:11 | 44.07328 | 26.13408 | 40006 ft | 452 kts | 326° |
| 2026-05-06 00:11 | 44.12583 | 26.08614 | 40008 ft | 452 kts | 327° |
| 2026-05-06 00:12 | 44.17837 | 26.03803 | 40004 ft | 452 kts | 326° |
| 2026-05-06 00:12 | 44.23083 | 25.98981 | 40002 ft | 452 kts | 326° |
| 2026-05-06 00:13 | 44.28323 | 25.94152 | 40005 ft | 451 kts | 326° |
| 2026-05-06 00:13 | 44.33564 | 25.89313 | 40009 ft | 451 kts | 326° |
| 2026-05-06 00:14 | 44.38799 | 25.84469 | 40012 ft | 451 kts | 326° |
| 2026-05-06 00:14 | 44.44038 | 25.79611 | 40014 ft | 452 kts | 326° |
| 2026-05-06 00:15 | 44.49242 | 25.74774 | 40015 ft | 452 kts | 326° |
| 2026-05-06 00:15 | 44.54479 | 25.69897 | 40014 ft | 452 kts | 326° |
| 2026-05-06 00:16 | 44.59710 | 25.65015 | 40015 ft | 451 kts | 326° |
| 2026-05-06 00:16 | 44.64921 | 25.60140 | 40011 ft | 450 kts | 326° |
| 2026-05-06 00:17 | 44.70139 | 25.55248 | 40023 ft | 451 kts | 326° |
| 2026-05-06 00:17 | 44.75359 | 25.50343 | 40019 ft | 451 kts | 326° |
| 2026-05-06 00:18 | 44.80577 | 25.45430 | 40026 ft | 451 kts | 326° |
| 2026-05-06 00:18 | 44.85775 | 25.40524 | 40025 ft | 449 kts | 326° |
| 2026-05-06 00:19 | 44.90965 | 25.35615 | 40033 ft | 449 kts | 326° |
| 2026-05-06 00:19 | 44.96153 | 25.30697 | 40031 ft | 450 kts | 326° |
| 2026-05-06 00:20 | 45.01352 | 25.25758 | 40030 ft | 450 kts | 326° |
| 2026-05-06 00:20 | 45.06542 | 25.20816 | 40036 ft | 450 kts | 326° |
| 2026-05-06 00:21 | 45.11728 | 25.15867 | 40043 ft | 449 kts | 326° |
| 2026-05-06 00:21 | 45.16909 | 25.10912 | 40047 ft | 450 kts | 326° |
| 2026-05-06 00:22 | 45.22097 | 25.05939 | 40044 ft | 450 kts | 326° |
| 2026-05-06 00:22 | 45.26408 | 25.01798 | 40044 ft | 451 kts | 325° |
| 2026-05-06 00:23 | 45.32444 | 24.95989 | 40045 ft | 451 kts | 325° |
| 2026-05-06 00:23 | 45.37620 | 24.90994 | 40044 ft | 451 kts | 325° |
| 2026-05-06 00:24 | 45.41964 | 24.86793 | 40042 ft | 451 kts | 325° |
| 2026-05-06 00:24 | 45.47149 | 24.81768 | 40031 ft | 451 kts | 325° |
| 2026-05-06 00:25 | 45.52331 | 24.76736 | 40034 ft | 452 kts | 325° |
| 2026-05-06 00:25 | 45.57533 | 24.71673 | 40022 ft | 452 kts | 325° |
| 2026-05-06 00:26 | 45.62721 | 24.66611 | 40021 ft | 452 kts | 325° |
| 2026-05-06 00:26 | 45.67911 | 24.61536 | 40006 ft | 452 kts | 325° |
| 2026-05-06 00:27 | 45.73097 | 24.56452 | 40007 ft | 452 kts | 325° |
| 2026-05-06 00:27 | 45.78242 | 24.51398 | 40001 ft | 452 kts | 325° |
| 2026-05-06 00:28 | 45.83432 | 24.46287 | 39994 ft | 452 kts | 325° |
| 2026-05-06 00:28 | 45.88616 | 24.41171 | 39994 ft | 452 kts | 325° |
| 2026-05-06 00:29 | 45.93797 | 24.36046 | 39992 ft | 452 kts | 324° |
| 2026-05-06 00:29 | 45.98977 | 24.30910 | 39991 ft | 452 kts | 324° |
| 2026-05-06 00:30 | 46.04153 | 24.25766 | 39994 ft | 453 kts | 324° |
| 2026-05-06 00:30 | 46.09337 | 24.20603 | 39994 ft | 453 kts | 324° |
| 2026-05-06 00:31 | 46.14518 | 24.15431 | 39992 ft | 453 kts | 324° |
| 2026-05-06 00:31 | 46.19700 | 24.10244 | 39987 ft | 453 kts | 324° |
| 2026-05-06 00:32 | 46.24878 | 24.05051 | 39991 ft | 453 kts | 324° |
| 2026-05-06 00:32 | 46.30054 | 23.99847 | 39986 ft | 453 kts | 324° |
| 2026-05-06 00:33 | 46.35231 | 23.94629 | 39987 ft | 453 kts | 324° |
| 2026-05-06 00:33 | 46.40404 | 23.89405 | 39988 ft | 453 kts | 324° |
| 2026-05-06 00:34 | 46.45569 | 23.84175 | 39993 ft | 453 kts | 324° |
| 2026-05-06 00:34 | 46.50732 | 23.78934 | 39996 ft | 453 kts | 324° |
| 2026-05-06 00:35 | 46.55896 | 23.73681 | 39994 ft | 453 kts | 324° |
| 2026-05-06 00:35 | 46.61057 | 23.68418 | 39995 ft | 454 kts | 324° |
| 2026-05-06 00:36 | 46.66223 | 23.63138 | 39991 ft | 454 kts | 324° |
| 2026-05-06 00:36 | 46.71386 | 23.57847 | 39996 ft | 454 kts | 324° |
| 2026-05-06 00:37 | 46.76550 | 23.52543 | 39992 ft | 454 kts | 324° |
| 2026-05-06 00:37 | 46.81677 | 23.47265 | 39994 ft | 454 kts | 324° |
| 2026-05-06 00:38 | 46.86833 | 23.41945 | 39989 ft | 454 kts | 323° |
| 2026-05-06 00:38 | 46.91994 | 23.36606 | 39988 ft | 455 kts | 323° |
| 2026-05-06 00:39 | 46.97154 | 23.31255 | 39983 ft | 455 kts | 323° |
| 2026-05-06 00:39 | 47.02313 | 23.25893 | 39981 ft | 454 kts | 323° |
| 2026-05-06 00:40 | 47.07466 | 23.20523 | 39977 ft | 455 kts | 323° |
| 2026-05-06 00:40 | 47.12619 | 23.15141 | 39974 ft | 455 kts | 323° |
| 2026-05-06 00:41 | 47.17771 | 23.09747 | 39977 ft | 455 kts | 323° |
| 2026-05-06 00:41 | 47.22929 | 23.04333 | 39963 ft | 455 kts | 323° |
| 2026-05-06 00:42 | 47.28081 | 22.98912 | 39962 ft | 455 kts | 323° |
| 2026-05-06 00:42 | 47.33233 | 22.93478 | 39958 ft | 455 kts | 323° |
| 2026-05-06 00:43 | 47.38383 | 22.88033 | 39951 ft | 455 kts | 323° |
| 2026-05-06 00:43 | 47.43533 | 22.82575 | 39954 ft | 455 kts | 323° |
| 2026-05-06 00:44 | 47.48680 | 22.77106 | 39943 ft | 456 kts | 323° |
| 2026-05-06 00:44 | 47.53834 | 22.71616 | 39938 ft | 456 kts | 323° |
| 2026-05-06 00:45 | 47.58982 | 22.66119 | 39941 ft | 456 kts | 322° |
| 2026-05-06 00:45 | 47.64128 | 22.60611 | 39934 ft | 456 kts | 322° |
| 2026-05-06 00:46 | 47.69269 | 22.55094 | 39933 ft | 456 kts | 322° |
| 2026-05-06 00:46 | 47.74407 | 22.49567 | 39932 ft | 456 kts | 322° |
| 2026-05-06 00:47 | 47.79561 | 22.44046 | 39933 ft | 457 kts | 324° |
| 2026-05-06 00:47 | 47.84944 | 22.38990 | 39930 ft | 458 kts | 327° |
| 2026-05-06 00:48 | 47.90436 | 22.34166 | 39924 ft | 458 kts | 327° |
| 2026-05-06 00:48 | 47.95917 | 22.29320 | 39925 ft | 458 kts | 327° |
| 2026-05-06 00:49 | 48.01375 | 22.24419 | 39922 ft | 458 kts | 327° |
| 2026-05-06 00:49 | 48.06827 | 22.19483 | 39919 ft | 458 kts | 327° |
| 2026-05-06 00:50 | 48.12279 | 22.14528 | 39913 ft | 458 kts | 327° |
| 2026-05-06 00:50 | 48.17727 | 22.09568 | 39926 ft | 458 kts | 327° |
| 2026-05-06 00:51 | 48.23175 | 22.04598 | 39915 ft | 458 kts | 326° |
| 2026-05-06 00:51 | 48.28622 | 21.99616 | 39917 ft | 458 kts | 326° |
| 2026-05-06 00:52 | 48.34332 | 21.95469 | 39917 ft | 462 kts | 340° |
| 2026-05-06 00:52 | 48.40700 | 21.94038 | 39916 ft | 468 kts | 359° |
| 2026-05-06 00:53 | 48.47197 | 21.95069 | 39913 ft | 471 kts | 6° |
| 2026-05-06 00:53 | 48.53672 | 21.96610 | 39907 ft | 471 kts | 7° |
| 2026-05-06 00:54 | 48.60142 | 21.98208 | 39903 ft | 471 kts | 7° |
| 2026-05-06 00:54 | 48.66612 | 21.99759 | 39905 ft | 471 kts | 6° |
| 2026-05-06 00:55 | 48.73089 | 22.01281 | 39910 ft | 471 kts | 6° |
| 2026-05-06 00:55 | 48.79563 | 22.02797 | 39913 ft | 471 kts | 6° |
| 2026-05-06 00:56 | 48.86041 | 22.04319 | 39909 ft | 471 kts | 6° |
| 2026-05-06 00:56 | 48.92515 | 22.05846 | 39909 ft | 471 kts | 6° |
| 2026-05-06 00:57 | 48.98991 | 22.07379 | 39910 ft | 471 kts | 6° |
| 2026-05-06 00:57 | 49.05463 | 22.08914 | 39909 ft | 471 kts | 6° |
| 2026-05-06 00:58 | 49.11939 | 22.10454 | 39910 ft | 471 kts | 6° |
| 2026-05-06 00:58 | 49.18412 | 22.11998 | 39909 ft | 471 kts | 6° |
| 2026-05-06 00:59 | 49.24892 | 22.13548 | 39900 ft | 471 kts | 6° |
| 2026-05-06 00:59 | 49.31367 | 22.15100 | 39897 ft | 471 kts | 6° |
| 2026-05-06 01:00 | 49.37839 | 22.16655 | 39897 ft | 471 kts | 6° |
| 2026-05-06 01:00 | 49.44315 | 22.18216 | 39900 ft | 471 kts | 6° |
| 2026-05-06 01:01 | 49.45365 | 22.18470 | 39900 ft | 471 kts | 6° |
| 2026-05-06 01:01 | 49.57170 | 22.21328 | 39889 ft | 471 kts | 6° |
| 2026-05-06 01:02 | 49.63644 | 22.22901 | 39889 ft | 471 kts | 6° |
| 2026-05-06 01:02 | 49.70120 | 22.24478 | 39887 ft | 471 kts | 6° |
| 2026-05-06 01:03 | 49.76594 | 22.26054 | 39881 ft | 470 kts | 6° |
| 2026-05-06 01:03 | 49.83046 | 22.27653 | 39881 ft | 471 kts | 9° |
| 2026-05-06 01:04 | 49.89527 | 22.29280 | 39879 ft | 472 kts | 6° |
| 2026-05-06 01:04 | 49.96015 | 22.30878 | 39865 ft | 472 kts | 6° |
| 2026-05-06 01:05 | 50.02506 | 22.32477 | 39861 ft | 472 kts | 6° |
| 2026-05-06 01:05 | 50.08994 | 22.34081 | 39861 ft | 472 kts | 6° |
| 2026-05-06 01:06 | 50.15482 | 22.35692 | 39861 ft | 472 kts | 7° |
| 2026-05-06 01:06 | 50.21971 | 22.37308 | 39853 ft | 472 kts | 7° |
| 2026-05-06 01:07 | 50.28458 | 22.38928 | 39855 ft | 472 kts | 7° |
| 2026-05-06 01:07 | 50.34941 | 22.40551 | 39854 ft | 472 kts | 7° |
| 2026-05-06 01:08 | 50.41392 | 22.42171 | 39854 ft | 473 kts | 7° |
| 2026-05-06 01:08 | 50.47884 | 22.43806 | 39861 ft | 473 kts | 7° |
| 2026-05-06 01:09 | 50.54374 | 22.45446 | 39850 ft | 472 kts | 7° |
| 2026-05-06 01:09 | 50.60866 | 22.47090 | 39854 ft | 473 kts | 7° |
| 2026-05-06 01:10 | 50.67364 | 22.48741 | 39852 ft | 473 kts | 7° |
| 2026-05-06 01:10 | 50.73861 | 22.50396 | 39851 ft | 473 kts | 7° |
| 2026-05-06 01:11 | 50.79308 | 22.51787 | 39854 ft | 473 kts | 7° |
| 2026-05-06 01:11 | 50.85763 | 22.53440 | 39846 ft | 473 kts | 7° |
| 2026-05-06 01:12 | 50.92255 | 22.55107 | 39844 ft | 473 kts | 7° |
| 2026-05-06 01:12 | 50.98750 | 22.56780 | 39834 ft | 473 kts | 7° |
| 2026-05-06 01:13 | 51.05248 | 22.58458 | 39841 ft | 473 kts | 7° |
| 2026-05-06 01:13 | 51.11747 | 22.60140 | 39831 ft | 474 kts | 7° |
| 2026-05-06 01:14 | 51.21517 | 22.62678 | 39829 ft | 474 kts | 7° |
| 2026-05-06 01:14 | 51.28023 | 22.64374 | 39829 ft | 474 kts | 7° |
| 2026-05-06 01:15 | 51.34512 | 22.66019 | 39823 ft | 468 kts | 6° |
| 2026-05-06 01:15 | 51.40974 | 22.67718 | 39824 ft | 473 kts | 7° |
| 2026-05-06 01:16 | 51.47488 | 22.69488 | 39820 ft | 475 kts | 7° |
| 2026-05-06 01:16 | 51.54001 | 22.71234 | 39821 ft | 474 kts | 7° |
| 2026-05-06 01:17 | 51.60517 | 22.72962 | 39815 ft | 475 kts | 7° |
| 2026-05-06 01:17 | 51.67037 | 22.74688 | 39815 ft | 475 kts | 7° |
| 2026-05-06 01:18 | 51.73514 | 22.76408 | 39813 ft | 475 kts | 7° |
| 2026-05-06 01:18 | 51.80041 | 22.78148 | 39813 ft | 476 kts | 7° |
| 2026-05-06 01:19 | 51.86576 | 22.79896 | 39813 ft | 476 kts | 7° |
| 2026-05-06 01:19 | 51.93116 | 22.81651 | 39802 ft | 476 kts | 7° |
| 2026-05-06 01:20 | 51.99652 | 22.83410 | 39806 ft | 476 kts | 7° |
| 2026-05-06 01:20 | 52.06196 | 22.85176 | 39804 ft | 477 kts | 7° |
| 2026-05-06 01:21 | 52.12748 | 22.86950 | 39805 ft | 477 kts | 7° |
| 2026-05-06 01:21 | 52.19300 | 22.88730 | 39804 ft | 478 kts | 7° |
| 2026-05-06 01:22 | 52.25857 | 22.90516 | 39806 ft | 478 kts | 7° |
| 2026-05-06 01:22 | 52.32412 | 22.92307 | 39798 ft | 478 kts | 7° |
| 2026-05-06 01:23 | 52.38975 | 22.94105 | 39796 ft | 478 kts | 7° |
| 2026-05-06 01:23 | 52.45543 | 22.95911 | 39804 ft | 478 kts | 7° |
| 2026-05-06 01:24 | 52.52115 | 22.97548 | 39801 ft | 477 kts | 5° |
| 2026-05-06 01:24 | 52.58694 | 22.99019 | 39798 ft | 477 kts | 5° |
| 2026-05-06 01:25 | 52.65227 | 23.00475 | 39803 ft | 477 kts | 5° |
| 2026-05-06 01:25 | 52.71809 | 23.01968 | 39802 ft | 477 kts | 5° |
| 2026-05-06 01:26 | 52.78386 | 23.03479 | 39801 ft | 477 kts | 5° |
| 2026-05-06 01:26 | 52.84965 | 23.04999 | 39806 ft | 477 kts | 5° |
| 2026-05-06 01:27 | 52.91542 | 23.06522 | 39804 ft | 477 kts | 5° |
| 2026-05-06 01:27 | 52.98088 | 23.08041 | 39812 ft | 477 kts | 5° |
| 2026-05-06 01:28 | 53.04667 | 23.09573 | 39819 ft | 478 kts | 5° |
| 2026-05-06 01:28 | 53.11251 | 23.11110 | 39810 ft | 478 kts | 5° |
| 2026-05-06 01:29 | 53.17839 | 23.12653 | 39818 ft | 478 kts | 5° |
| 2026-05-06 01:29 | 53.24420 | 23.14200 | 39821 ft | 478 kts | 5° |
| 2026-05-06 01:30 | 53.31013 | 23.15755 | 39829 ft | 479 kts | 5° |
| 2026-05-06 01:30 | 53.37616 | 23.17315 | 39829 ft | 480 kts | 5° |
| 2026-05-06 01:31 | 53.44225 | 23.18884 | 39837 ft | 480 kts | 5° |
| 2026-05-06 01:31 | 53.50832 | 23.20456 | 39851 ft | 479 kts | 5° |
| 2026-05-06 01:32 | 53.57399 | 23.22023 | 39840 ft | 480 kts | 5° |
| 2026-05-06 01:32 | 53.64022 | 23.23608 | 39845 ft | 481 kts | 5° |
| 2026-05-06 01:33 | 53.70645 | 23.25198 | 39845 ft | 481 kts | 5° |
| 2026-05-06 01:33 | 53.77268 | 23.26792 | 39848 ft | 481 kts | 5° |
| 2026-05-06 01:34 | 53.83893 | 23.28392 | 39853 ft | 481 kts | 5° |
| 2026-05-06 01:34 | 53.90508 | 23.29995 | 39854 ft | 481 kts | 5° |
| 2026-05-06 01:35 | 53.97116 | 23.31851 | 39858 ft | 483 kts | 12° |
| 2026-05-06 01:35 | 54.03297 | 23.36413 | 39874 ft | 490 kts | 32° |
| 2026-05-06 01:36 | 54.05972 | 23.40031 | 39865 ft | 494 kts | 43° |
| 2026-05-06 01:36 | 54.08220 | 23.44453 | 39858 ft | 496 kts | 54° |
| 2026-05-06 01:36 | 54.11873 | 23.54482 | 39857 ft | 499 kts | 59° |
| 2026-05-06 01:37 | 54.15262 | 23.64823 | 39860 ft | 500 kts | 60° |
| 2026-05-06 01:37 | 54.18638 | 23.75203 | 39865 ft | 500 kts | 60° |
| 2026-05-06 01:38 | 54.22039 | 23.85567 | 39866 ft | 501 kts | 59° |
| 2026-05-06 01:38 | 54.25457 | 23.95943 | 39869 ft | 501 kts | 59° |
| 2026-05-06 01:39 | 54.28873 | 24.06340 | 39869 ft | 501 kts | 59° |
| 2026-05-06 01:39 | 54.32277 | 24.16751 | 39866 ft | 501 kts | 60° |
| 2026-05-06 01:40 | 54.35671 | 24.27178 | 39867 ft | 501 kts | 60° |
| 2026-05-06 01:40 | 54.39057 | 24.37632 | 39874 ft | 502 kts | 60° |
| 2026-05-06 01:41 | 54.42438 | 24.48115 | 39869 ft | 502 kts | 60° |
| 2026-05-06 01:41 | 54.45806 | 24.58537 | 39872 ft | 502 kts | 59° |
| 2026-05-06 01:42 | 54.49208 | 24.69124 | 39869 ft | 503 kts | 60° |
| 2026-05-06 01:42 | 54.52560 | 24.79655 | 39877 ft | 502 kts | 60° |
| 2026-05-06 01:43 | 54.55889 | 24.90168 | 39879 ft | 504 kts | 60° |
| 2026-05-06 01:43 | 54.59241 | 25.00792 | 39886 ft | 505 kts | 60° |
| 2026-05-06 01:44 | 54.62584 | 25.11433 | 39891 ft | 505 kts | 60° |
| 2026-05-06 01:44 | 54.65920 | 25.22095 | 39889 ft | 505 kts | 60° |
| 2026-05-06 01:45 | 54.69244 | 25.32769 | 39882 ft | 505 kts | 60° |
| 2026-05-06 01:45 | 54.72561 | 25.43470 | 39884 ft | 506 kts | 60° |
| 2026-05-06 01:46 | 54.75879 | 25.54220 | 39884 ft | 506 kts | 60° |
| 2026-05-06 01:46 | 54.79186 | 25.64985 | 39887 ft | 506 kts | 60° |
| 2026-05-06 01:47 | 54.82403 | 25.75848 | 39885 ft | 507 kts | 66° |
| 2026-05-06 01:47 | 54.84494 | 25.87517 | 39887 ft | 507 kts | 75° |
| 2026-05-06 01:48 | 54.86195 | 25.99402 | 39887 ft | 508 kts | 76° |
| 2026-05-06 01:48 | 54.87813 | 26.11357 | 39884 ft | 509 kts | 76° |
| 2026-05-06 01:49 | 54.89432 | 26.23337 | 39884 ft | 509 kts | 76° |
| 2026-05-06 01:49 | 54.91064 | 26.35385 | 39883 ft | 509 kts | 76° |
| 2026-05-06 01:50 | 54.92683 | 26.47371 | 39886 ft | 509 kts | 76° |
| 2026-05-06 01:50 | 54.94289 | 26.59352 | 39878 ft | 509 kts | 77° |
| 2026-05-06 01:51 | 54.95881 | 26.71337 | 39893 ft | 508 kts | 77° |
| 2026-05-06 01:51 | 54.97461 | 26.83327 | 39889 ft | 509 kts | 77° |
| 2026-05-06 01:52 | 54.99035 | 26.95363 | 39887 ft | 509 kts | 77° |
| 2026-05-06 01:52 | 55.00585 | 27.07325 | 39889 ft | 509 kts | 77° |
| 2026-05-06 01:53 | 55.02133 | 27.19366 | 39889 ft | 509 kts | 77° |
| 2026-05-06 01:53 | 55.03669 | 27.31419 | 39883 ft | 509 kts | 77° |
| 2026-05-06 01:54 | 55.04875 | 27.43556 | 39886 ft | 508 kts | 88° |
| 2026-05-06 01:54 | 55.04830 | 27.55877 | 39888 ft | 508 kts | 93° |
| 2026-05-06 01:55 | 55.04507 | 27.68196 | 39886 ft | 509 kts | 94° |
| 2026-05-06 01:55 | 55.04125 | 27.80530 | 39887 ft | 509 kts | 94° |
| 2026-05-06 01:56 | 55.03747 | 27.92864 | 39886 ft | 509 kts | 94° |
| 2026-05-06 01:56 | 55.03374 | 28.05189 | 39878 ft | 509 kts | 94° |
| 2026-05-06 01:57 | 55.02993 | 28.17520 | 39878 ft | 509 kts | 94° |
| 2026-05-06 01:57 | 55.02667 | 28.27762 | 39878 ft | 509 kts | 94° |
| 2026-05-06 01:58 | 55.02262 | 28.40086 | 39875 ft | 509 kts | 94° |
| 2026-05-06 01:58 | 55.01844 | 28.52402 | 39864 ft | 509 kts | 94° |
| 2026-05-06 01:59 | 55.01414 | 28.64708 | 39864 ft | 509 kts | 94° |
| 2026-05-06 01:59 | 55.00972 | 28.77023 | 39873 ft | 509 kts | 95° |
| 2026-05-06 02:00 | 55.00517 | 28.89335 | 39871 ft | 510 kts | 95° |
| 2026-05-06 02:00 | 55.00049 | 29.01667 | 39870 ft | 510 kts | 95° |
| 2026-05-06 02:01 | 54.99568 | 29.13984 | 39864 ft | 510 kts | 95° |
| 2026-05-06 02:01 | 54.99076 | 29.26289 | 39863 ft | 509 kts | 95° |
| 2026-05-06 02:02 | 54.98572 | 29.38587 | 39868 ft | 509 kts | 95° |
| 2026-05-06 02:02 | 54.98055 | 29.50871 | 39857 ft | 509 kts | 95° |
| 2026-05-06 02:03 | 54.97526 | 29.63160 | 39870 ft | 509 kts | 95° |
| 2026-05-06 02:03 | 54.97019 | 29.74723 | 39859 ft | 507 kts | 94° |
| 2026-05-06 02:04 | 54.96511 | 29.86947 | 39855 ft | 506 kts | 94° |
| 2026-05-06 02:04 | 54.95975 | 29.99156 | 39858 ft | 506 kts | 95° |
| 2026-05-06 02:05 | 54.95408 | 30.11352 | 39858 ft | 506 kts | 95° |
| 2026-05-06 02:05 | 54.94819 | 30.23552 | 39861 ft | 506 kts | 95° |
| 2026-05-06 02:06 | 54.94223 | 30.35659 | 39854 ft | 505 kts | 95° |
| 2026-05-06 02:06 | 54.93611 | 30.47832 | 39859 ft | 505 kts | 95° |
| 2026-05-06 02:07 | 54.92989 | 30.59997 | 39861 ft | 505 kts | 95° |
| 2026-05-06 02:07 | 54.92354 | 30.72170 | 39859 ft | 505 kts | 95° |
| 2026-05-06 02:08 | 54.92101 | 30.84345 | 39840 ft | 505 kts | 83° |
| 2026-05-06 02:08 | 54.93219 | 30.96367 | 39853 ft | 503 kts | 78° |
| 2026-05-06 02:09 | 54.94628 | 31.08279 | 39854 ft | 503 kts | 77° |
| 2026-05-06 02:09 | 54.96076 | 31.20178 | 39860 ft | 503 kts | 77° |
| 2026-05-06 02:10 | 54.97493 | 31.32106 | 39854 ft | 504 kts | 77° |
| 2026-05-06 02:10 | 54.98882 | 31.44069 | 39857 ft | 504 kts | 78° |
| 2026-05-06 02:11 | 55.00253 | 31.56031 | 39856 ft | 504 kts | 78° |
| 2026-05-06 02:11 | 55.01611 | 31.67995 | 39856 ft | 502 kts | 78° |
| 2026-05-06 02:12 | 55.02951 | 31.79912 | 39854 ft | 501 kts | 78° |
| 2026-05-06 02:12 | 55.04261 | 31.91843 | 39854 ft | 501 kts | 79° |
| 2026-05-06 02:13 | 55.05540 | 32.03793 | 39856 ft | 502 kts | 79° |
| 2026-05-06 02:13 | 55.06831 | 32.15772 | 39853 ft | 502 kts | 79° |
| 2026-05-06 02:14 | 55.08125 | 32.27750 | 39856 ft | 502 kts | 79° |
| 2026-05-06 02:14 | 55.09411 | 32.39726 | 39851 ft | 501 kts | 79° |
| 2026-05-06 02:15 | 55.10681 | 32.51676 | 39853 ft | 500 kts | 79° |
| 2026-05-06 02:15 | 55.11928 | 32.63533 | 39853 ft | 500 kts | 79° |
| 2026-05-06 02:16 | 55.13172 | 32.75480 | 39854 ft | 500 kts | 80° |
| 2026-05-06 02:16 | 55.14408 | 32.87465 | 39854 ft | 502 kts | 80° |
| 2026-05-06 02:17 | 55.15633 | 32.99474 | 39851 ft | 502 kts | 80° |
| 2026-05-06 02:17 | 55.16834 | 33.11464 | 39835 ft | 499 kts | 79° |
| 2026-05-06 02:18 | 55.18029 | 33.23458 | 39848 ft | 501 kts | 80° |
| 2026-05-06 02:18 | 55.19221 | 33.35453 | 39849 ft | 500 kts | 81° |
| 2026-05-06 02:19 | 55.20388 | 33.47466 | 39856 ft | 501 kts | 81° |
| 2026-05-06 02:19 | 55.21547 | 33.59493 | 39848 ft | 502 kts | 81° |
| 2026-05-06 02:20 | 55.22701 | 33.71539 | 39571 ft | 501 kts | 81° |
| 2026-05-06 02:20 | 55.23273 | 33.77559 | 39333 ft | 500 kts | 81° |
| 2026-05-06 02:20 | 55.23839 | 33.83552 | 38884 ft | 499 kts | 81° |
| 2026-05-06 02:21 | 55.24404 | 33.89574 | 38145 ft | 503 kts | 81° |
| 2026-05-06 02:21 | 55.24970 | 33.95618 | 37410 ft | 499 kts | 81° |
| 2026-05-06 02:21 | 55.25529 | 34.01556 | 36729 ft | 488 kts | 81° |
| 2026-05-06 02:21 | 55.26073 | 34.07360 | 36044 ft | 478 kts | 81° |
| 2026-05-06 02:22 | 55.26581 | 34.13079 | 35335 ft | 476 kts | 84° |
| 2026-05-06 02:22 | 55.26821 | 34.18881 | 34587 ft | 481 kts | 88° |
| 2026-05-06 02:22 | 55.26989 | 34.24748 | 33773 ft | 487 kts | 89° |
| 2026-05-06 02:22 | 55.27117 | 34.30726 | 32816 ft | 494 kts | 89° |
| 2026-05-06 02:23 | 55.27223 | 34.36754 | 31910 ft | 498 kts | 90° |
| 2026-05-06 02:23 | 55.27320 | 34.42869 | 30978 ft | 503 kts | 90° |
| 2026-05-06 02:23 | 55.27414 | 34.49031 | 29995 ft | 508 kts | 90° |
| 2026-05-06 02:23 | 55.27509 | 34.55232 | 29121 ft | 508 kts | 90° |
| 2026-05-06 02:24 | 55.27592 | 34.61329 | 28519 ft | 491 kts | 90° |
| 2026-05-06 02:24 | 55.27670 | 34.67243 | 27901 ft | 483 kts | 90° |
| 2026-05-06 02:24 | 55.27749 | 34.73109 | 27274 ft | 479 kts | 90° |
| 2026-05-06 02:24 | 55.28005 | 34.78924 | 26650 ft | 478 kts | 81° |
| 2026-05-06 02:25 | 55.28698 | 34.84600 | 26029 ft | 475 kts | 78° |
| 2026-05-06 02:25 | 55.29472 | 34.90218 | 25384 ft | 472 kts | 77° |
| 2026-05-06 02:25 | 55.30254 | 34.95739 | 24760 ft | 470 kts | 77° |
| 2026-05-06 02:25 | 55.31039 | 35.01237 | 24123 ft | 469 kts | 77° |
| 2026-05-06 02:26 | 55.31826 | 35.06775 | 23488 ft | 467 kts | 77° |
| 2026-05-06 02:26 | 55.32610 | 35.12298 | 22748 ft | 465 kts | 77° |
| 2026-05-06 02:26 | 55.33386 | 35.17780 | 22090 ft | 461 kts | 77° |
| 2026-05-06 02:26 | 55.34153 | 35.23221 | 21440 ft | 457 kts | 77° |
| 2026-05-06 02:27 | 55.34911 | 35.28613 | 20803 ft | 453 kts | 77° |
| 2026-05-06 02:27 | 55.35661 | 35.33963 | 20190 ft | 449 kts | 77° |
| 2026-05-06 02:27 | 55.36402 | 35.39265 | 19555 ft | 445 kts | 77° |
| 2026-05-06 02:27 | 55.37137 | 35.44525 | 18943 ft | 441 kts | 76° |
| 2026-05-06 02:28 | 55.37867 | 35.49739 | 18325 ft | 437 kts | 76° |
| 2026-05-06 02:28 | 55.38532 | 35.54931 | 17662 ft | 434 kts | 82° |
| 2026-05-06 02:28 | 55.38580 | 35.60148 | 17280 ft | 422 kts | 98° |
| 2026-05-06 02:28 | 55.38106 | 35.65209 | 16891 ft | 419 kts | 103° |
| 2026-05-06 02:29 | 55.37523 | 35.70236 | 16472 ft | 419 kts | 104° |
| 2026-05-06 02:29 | 55.36931 | 35.75217 | 16055 ft | 417 kts | 104° |
| 2026-05-06 02:29 | 55.36340 | 35.80204 | 15656 ft | 415 kts | 104° |
| 2026-05-06 02:29 | 55.35757 | 35.85151 | 15236 ft | 412 kts | 104° |
| 2026-05-06 02:30 | 55.35176 | 35.90079 | 14818 ft | 411 kts | 104° |
| 2026-05-06 02:30 | 55.34601 | 35.94992 | 14420 ft | 410 kts | 104° |
| 2026-05-06 02:30 | 55.34031 | 35.99891 | 14016 ft | 408 kts | 104° |
| 2026-05-06 02:30 | 55.33463 | 36.04756 | 13608 ft | 406 kts | 103° |
| 2026-05-06 02:31 | 55.32899 | 36.09578 | 13172 ft | 402 kts | 103° |
| 2026-05-06 02:31 | 55.32336 | 36.14370 | 12774 ft | 399 kts | 104° |
| 2026-05-06 02:31 | 55.31774 | 36.19138 | 12366 ft | 397 kts | 104° |
| 2026-05-06 02:31 | 55.31213 | 36.23874 | 11975 ft | 395 kts | 104° |
| 2026-05-06 02:32 | 55.30653 | 36.28583 | 11594 ft | 394 kts | 104° |
| 2026-05-06 02:32 | 55.30095 | 36.33267 | 11200 ft | 392 kts | 104° |
| 2026-05-06 02:32 | 55.29534 | 36.37935 | 10903 ft | 390 kts | 104° |
| 2026-05-06 02:32 | 55.28951 | 36.42576 | 10498 ft | 387 kts | 104° |
| 2026-05-06 02:33 | 55.28372 | 36.47111 | 10212 ft | 375 kts | 104° |
| 2026-05-06 02:33 | 55.27998 | 36.50038 | 9993 ft | 368 kts | 105° |
| 2026-05-06 02:33 | 55.26728 | 36.59873 | 9506 ft | 339 kts | 107° |
| 2026-05-06 02:34 | 55.25900 | 36.63617 | 9347 ft | 323 kts | 121° |
| 2026-05-06 02:34 | 55.24839 | 36.66865 | 9170 ft | 311 kts | 124° |
| 2026-05-06 02:34 | 55.23722 | 36.70069 | 8809 ft | 307 kts | 125° |
| 2026-05-06 02:34 | 55.22602 | 36.73252 | 8373 ft | 307 kts | 124° |
| 2026-05-06 02:35 | 55.21487 | 36.76436 | 7991 ft | 306 kts | 124° |
| 2026-05-06 02:35 | 55.20381 | 36.79602 | 7591 ft | 304 kts | 124° |
| 2026-05-06 02:35 | 55.19280 | 36.82761 | 7213 ft | 303 kts | 124° |
| 2026-05-06 02:35 | 55.18197 | 36.85875 | 7018 ft | 297 kts | 124° |
| 2026-05-06 02:36 | 55.17124 | 36.88963 | 6998 ft | 297 kts | 124° |
| 2026-05-06 02:36 | 55.16049 | 36.92054 | 6997 ft | 298 kts | 124° |
| 2026-05-06 02:36 | 55.14972 | 36.95145 | 7000 ft | 297 kts | 124° |
| 2026-05-06 02:36 | 55.13898 | 36.98228 | 6999 ft | 298 kts | 124° |
| 2026-05-06 02:37 | 55.12843 | 37.01348 | 6993 ft | 299 kts | 119° |
| 2026-05-06 02:37 | 55.12246 | 37.04824 | 6837 ft | 301 kts | 94° |
| 2026-05-06 02:37 | 55.12614 | 37.08390 | 6656 ft | 300 kts | 66° |
| 2026-05-06 02:37 | 55.13560 | 37.11630 | 6516 ft | 300 kts | 59° |
| 2026-05-06 02:38 | 55.14606 | 37.14788 | 6350 ft | 300 kts | 58° |
| 2026-05-06 02:38 | 55.15658 | 37.17944 | 6197 ft | 300 kts | 58° |
| 2026-05-06 02:38 | 55.16697 | 37.21093 | 6021 ft | 299 kts | 59° |
| 2026-05-06 02:38 | 55.17727 | 37.24250 | 5871 ft | 298 kts | 59° |
| 2026-05-06 02:39 | 55.18745 | 37.27390 | 5724 ft | 297 kts | 59° |
| 2026-05-06 02:39 | 55.19760 | 37.30532 | 5573 ft | 296 kts | 59° |
| 2026-05-06 02:39 | 55.20811 | 37.33559 | 5402 ft | 294 kts | 51° |
| 2026-05-06 02:39 | 55.22356 | 37.35868 | 5250 ft | 287 kts | 22° |
| 2026-05-06 02:40 | 55.24250 | 37.36688 | 5101 ft | 279 kts | 1° |
| 2026-05-06 02:40 | 55.26185 | 37.36861 | 4954 ft | 279 kts | 358° |
| 2026-05-06 02:40 | 55.28124 | 37.36937 | 4808 ft | 278 kts | 357° |
| 2026-05-06 02:40 | 55.30058 | 37.36971 | 4649 ft | 277 kts | 353° |
| 2026-05-06 02:41 | 55.31898 | 37.36263 | 4525 ft | 269 kts | 331° |
| 2026-05-06 02:41 | 55.33425 | 37.34516 | 4374 ft | 265 kts | 318° |
| 2026-05-06 02:41 | 55.34838 | 37.32442 | 4226 ft | 264 kts | 316° |
| 2026-05-06 02:41 | 55.36230 | 37.30334 | 4108 ft | 264 kts | 316° |
| 2026-05-06 02:42 | 55.37623 | 37.28227 | 3952 ft | 264 kts | 316° |
| 2026-05-06 02:42 | 55.39018 | 37.26129 | 3809 ft | 264 kts | 316° |
| 2026-05-06 02:42 | 55.40413 | 37.24038 | 3687 ft | 263 kts | 316° |
| 2026-05-06 02:42 | 55.41805 | 37.21955 | 3533 ft | 259 kts | 317° |
| 2026-05-06 02:43 | 55.42721 | 37.20588 | 3449 ft | 253 kts | 317° |
| 2026-05-06 02:43 | 55.44035 | 37.18628 | 3333 ft | 244 kts | 317° |
| 2026-05-06 02:43 | 55.45299 | 37.16750 | 3192 ft | 234 kts | 317° |
| 2026-05-06 02:43 | 55.46507 | 37.14946 | 3093 ft | 222 kts | 316° |
| 2026-05-06 02:44 | 55.47638 | 37.13243 | 2931 ft | 211 kts | 316° |
| 2026-05-06 02:44 | 55.48737 | 37.11595 | 2838 ft | 198 kts | 316° |
| 2026-05-06 02:44 | 55.49743 | 37.10094 | 2736 ft | 186 kts | 317° |
| 2026-05-06 02:44 | 55.50703 | 37.08660 | 2617 ft | 175 kts | 316° |
| 2026-05-06 02:45 | 55.51620 | 37.07277 | 2521 ft | 170 kts | 316° |
| 2026-05-06 02:45 | 55.52546 | 37.05989 | 2463 ft | 173 kts | 326° |
| 2026-05-06 02:45 | 55.53735 | 37.05534 | 2322 ft | 179 kts | 8° |
| 2026-05-06 02:45 | 55.54758 | 37.06703 | 2154 ft | 179 kts | 55° |
| 2026-05-06 02:46 | 55.55316 | 37.08651 | 2042 ft | 178 kts | 68° |
| 2026-05-06 02:46 | 55.55734 | 37.10588 | 1978 ft | 160 kts | 70° |
| 2026-05-06 02:46 | 55.56061 | 37.12375 | 1965 ft | 146 kts | 71° |
| 2026-05-06 02:46 | 55.56452 | 37.14074 | 1840 ft | 150 kts | 65° |
| 2026-05-06 02:47 | 55.56835 | 37.15745 | 1642 ft | 147 kts | 68° |
| 2026-05-06 02:47 | 55.57194 | 37.17411 | 1437 ft | 143 kts | 69° |
| 2026-05-06 02:47 | 55.57552 | 37.19019 | 1255 ft | 139 kts | 69° |
| 2026-05-06 02:47 | 55.57906 | 37.20587 | 1063 ft | 136 kts | 68° |
| 2026-05-06 02:48 | 55.58254 | 37.22135 | 868 ft | 135 kts | 67° |
| 2026-05-06 02:48 | 55.58596 | 37.23668 | 723 ft | 134 kts | 66° |
| 2026-05-06 02:48 | 55.58929 | 37.25135 | 663 ft | 113 kts | 69° |
| 2026-05-06 02:48 | 55.59145 | 37.26105 | 672 ft | 57 kts | 69° |
| 2026-05-06 02:49 | 55.59223 | 37.26420 | 672 ft | 1 kts | 59° |
| 2026-05-06 02:49 | 55.59246 | 37.26485 | 672 ft | 11 kts | 56° |
| 2026-05-06 02:49 | 55.59311 | 37.26623 | 672 ft | 18 kts | 43° |
| 2026-05-06 02:49 | 55.59411 | 37.26786 | 672 ft | 20 kts | 42° |
| 2026-05-06 02:50 | 55.59504 | 37.26893 | 672 ft | 13 kts | 0° |
| 2026-05-06 02:50 | 55.59585 | 37.26917 | 672 ft | 12 kts | 33° |
| 2026-05-06 02:50 | 55.59645 | 37.27024 | 672 ft | 13 kts | 46° |
| 2026-05-06 02:50 | 55.59725 | 37.27172 | 671 ft | 19 kts | 46° |
| 2026-05-06 02:51 | 55.59829 | 37.27363 | 679 ft | 22 kts | 46° |
| 2026-05-06 02:51 | 55.59934 | 37.27562 | 677 ft | 22 kts | 53° |
| 2026-05-06 02:51 | 55.60035 | 37.27754 | 678 ft | 21 kts | 34° |
| 2026-05-06 02:51 | 55.60138 | 37.27877 | 678 ft | 10 kts | 357° |
| 2026-05-06 02:52 | 55.60220 | 37.27841 | 680 ft | 15 kts | 352° |
| 2026-05-06 02:52 | 55.60336 | 37.27856 | 682 ft | 18 kts | 6° |
| 2026-05-06 02:52 | 55.60448 | 37.27946 | 677 ft | 18 kts | 43° |
| 2026-05-06 02:52 | 55.60491 | 37.28037 | 680 ft | 1 kts | 85° |
| 2026-05-06 02:53 | 55.60475 | 37.28072 | 677 ft | 6 kts | 136° |
| 2026-05-06 02:53 | 55.60432 | 37.28119 | 682 ft | 8 kts | 154° |
| 2026-05-06 02:53 | 55.60408 | 37.28139 | 680 ft | 1 kts | 154° |
| 2026-05-06 02:53 | 55.60406 | 37.28141 | 679 ft | 0 kts | 154° |